createdAt,value
2022-10-28T00:01:57.310Z,101104.88
2022-10-28T00:04:45.801Z,101108.56
2022-10-28T00:07:34.287Z,101117.88
2022-10-28T00:10:22.697Z,101109.38
2022-10-28T00:13:12.517Z,101113.06
2022-10-28T00:16:09.121Z,101106.91
2022-10-28T00:18:59.191Z,101098.50
2022-10-28T00:21:47.641Z,101098.22
2022-10-28T00:24:36.146Z,101111.03
2022-10-28T00:27:24.685Z,101110.22
2022-10-28T00:30:15.005Z,101109.59
2022-10-28T00:33:03.499Z,101109.22
2022-10-28T00:35:51.934Z,101105.91
2022-10-28T00:38:40.889Z,101105.91
2022-10-28T00:41:31.895Z,101099.91
2022-10-28T00:44:43.427Z,101105.06
2022-10-28T00:47:39.678Z,101100.91
2022-10-28T00:50:41.860Z,101097.59
2022-10-28T00:53:32.341Z,101099.91
2022-10-28T00:56:21.263Z,101095.19
2022-10-28T00:59:14.741Z,101089.38
2022-10-28T01:02:03.290Z,101089.22
2022-10-28T01:04:53.538Z,101098.88
2022-10-28T01:07:42.086Z,101080.59
2022-10-28T01:10:49.321Z,101077.66
2022-10-28T01:13:48.429Z,101078.88
2022-10-28T01:16:42.207Z,101080.91
2022-10-28T01:20:20.881Z,101077.22
2022-10-28T01:23:15.955Z,101073.25
2022-10-28T01:26:24.266Z,101070.19
2022-10-28T01:29:34.429Z,101072.06
2022-10-28T01:32:31.054Z,101071.84
2022-10-28T01:35:23.968Z,101071.84
2022-10-28T01:38:27.766Z,101077.22
2022-10-28T01:41:19.083Z,101071.22
2022-10-28T01:44:11.293Z,101066.91
2022-10-28T01:47:04.225Z,101073.16
2022-10-28T01:49:57.700Z,101071.84
2022-10-28T01:52:47.192Z,101069.81
2022-10-28T01:55:37.406Z,101074.53
2022-10-28T01:58:29.368Z,101079.88
2022-10-28T02:01:18.302Z,101073.50
2022-10-28T02:04:06.909Z,101065.69
2022-10-28T02:06:57.969Z,101066.50
2022-10-28T02:10:00.537Z,101072.25
2022-10-28T02:12:50.839Z,101066.50
2022-10-28T02:15:43.431Z,101065.13
2022-10-28T02:18:36.842Z,101062.81
2022-10-28T02:21:31.940Z,101068.44
2022-10-28T02:24:25.094Z,101061.16
2022-10-28T02:27:21.489Z,101059.50
2022-10-28T02:30:15.492Z,101060.78
2022-10-28T02:33:05.774Z,101069.63
2022-10-28T02:35:57.413Z,101072.50
2022-10-28T02:38:49.129Z,101071.84
2022-10-28T02:41:43.134Z,101054.53
2022-10-28T02:44:34.172Z,101063.19
2022-10-28T02:47:25.106Z,101055.81
2022-10-28T02:50:17.207Z,101049.81
2022-10-28T02:53:10.371Z,101045.50
2022-10-28T02:56:01.051Z,101045.50
2022-10-28T02:58:51.047Z,101043.28
2022-10-28T03:01:39.682Z,101043.66
2022-10-28T03:04:28.481Z,101056.81
2022-10-28T03:07:16.914Z,101061.16
2022-10-28T03:10:05.983Z,101057.09
2022-10-28T03:12:54.431Z,101043.91
2022-10-28T03:15:44.173Z,101053.75
2022-10-28T03:18:32.590Z,101049.66
2022-10-28T03:21:21.002Z,101053.41
2022-10-28T03:24:09.556Z,101049.72
2022-10-28T03:26:57.904Z,101044.72
2022-10-28T03:29:46.428Z,101041.41
2022-10-28T03:32:36.162Z,101036.06
2022-10-28T03:35:24.588Z,101036.91
2022-10-28T03:38:13.106Z,101037.34
2022-10-28T03:41:01.439Z,101040.22
2022-10-28T03:43:49.920Z,101038.72
2022-10-28T03:46:38.401Z,101034.78
2022-10-28T03:49:28.167Z,101040.59
2022-10-28T03:52:16.632Z,101041.78
2022-10-28T03:55:05.549Z,101041.00
2022-10-28T03:57:54.175Z,101036.44
2022-10-28T04:00:42.829Z,101039.75
2022-10-28T04:03:31.306Z,101036.44
2022-10-28T04:06:21.125Z,101038.72
2022-10-28T04:09:09.553Z,101033.94
2022-10-28T04:11:58.059Z,101033.13
2022-10-28T04:14:46.574Z,101039.13
2022-10-28T04:17:35.919Z,101043.53
2022-10-28T04:20:24.476Z,101037.47
2022-10-28T04:23:16.133Z,101046.22
2022-10-28T04:26:04.746Z,101039.63
2022-10-28T04:28:53.200Z,101044.91
2022-10-28T04:31:41.601Z,101035.13
2022-10-28T04:34:30.028Z,101028.31
2022-10-28T04:37:20.537Z,101031.19
2022-10-28T04:40:11.590Z,101035.63
2022-10-28T04:43:00.033Z,101033.13
2022-10-28T04:45:48.484Z,101031.53
2022-10-28T04:48:37.545Z,101029.78
2022-10-28T04:51:26.133Z,101021.31
2022-10-28T04:54:14.557Z,101013.75
2022-10-28T04:57:04.389Z,101006.38
2022-10-28T04:59:52.888Z,101005.97
2022-10-28T05:02:45.255Z,100996.13
2022-10-28T05:05:34.734Z,100998.72
2022-10-28T05:08:23.119Z,100998.72
2022-10-28T05:11:11.613Z,100997.88
2022-10-28T05:14:01.462Z,100993.38
2022-10-28T05:16:49.848Z,101003.06
2022-10-28T05:19:38.297Z,101006.63
2022-10-28T05:22:26.694Z,101012.81
2022-10-28T05:25:15.433Z,101018.22
2022-10-28T05:28:03.877Z,101012.41
2022-10-28T05:30:53.703Z,101003.59
2022-10-28T05:33:42.226Z,101009.09
2022-10-28T05:36:30.678Z,101009.94
2022-10-28T05:39:19.237Z,101008.28
2022-10-28T05:42:07.756Z,101016.94
2022-10-28T05:44:56.171Z,101021.66
2022-10-28T05:47:47.007Z,101016.94
2022-10-28T05:50:35.817Z,101015.28
2022-10-28T05:53:24.217Z,101021.66
2022-10-28T05:56:12.828Z,101014.06
2022-10-28T05:59:01.262Z,101006.63
2022-10-28T06:01:49.780Z,101020.25
2022-10-28T06:04:39.627Z,101015.94
2022-10-28T06:07:30.163Z,101017.59
2022-10-28T06:10:18.713Z,101016.94
2022-10-28T06:13:05.935Z,101018.59
2022-10-28T06:15:55.054Z,101012.97
2022-10-28T06:18:43.566Z,101024.59
2022-10-28T06:21:33.325Z,101024.97
2022-10-28T06:24:21.714Z,101024.59
2022-10-28T06:27:10.565Z,101027.66
2022-10-28T06:29:58.989Z,101022.31
2022-10-28T06:32:47.401Z,101025.03
2022-10-28T06:35:35.823Z,101023.41
2022-10-28T06:38:25.692Z,101033.25
2022-10-28T06:41:14.106Z,101029.31
2022-10-28T06:44:02.733Z,101043.69
2022-10-28T06:46:52.654Z,101037.97
2022-10-28T06:49:41.039Z,101037.31
2022-10-28T06:52:29.492Z,101043.31
2022-10-28T06:55:19.422Z,101044.16
2022-10-28T06:58:07.855Z,101042.94
2022-10-28T07:00:56.304Z,101042.28
2022-10-28T07:03:44.734Z,101043.47
2022-10-28T07:06:33.204Z,101046.16
2022-10-28T07:09:21.591Z,101034.66
2022-10-28T07:12:14.387Z,101045.34
2022-10-28T07:15:02.846Z,101046.38
2022-10-28T07:17:54.585Z,101052.34
2022-10-28T07:20:42.960Z,101061.00
2022-10-28T07:23:33.041Z,101061.00
2022-10-28T07:26:21.532Z,101063.97
2022-10-28T07:29:12.025Z,101069.66
2022-10-28T07:32:00.563Z,101066.44
2022-10-28T07:34:49.150Z,101068.09
2022-10-28T07:37:39.648Z,101062.28
2022-10-28T07:40:28.314Z,101067.63
2022-10-28T07:43:16.784Z,101070.97
2022-10-28T07:46:07.451Z,101073.81
2022-10-28T07:48:55.859Z,101073.66
2022-10-28T07:51:44.289Z,101077.13
2022-10-28T07:54:32.878Z,101071.59
2022-10-28T07:57:21.325Z,101070.41
2022-10-28T08:00:11.056Z,101073.91
2022-10-28T08:03:00.831Z,101078.88
2022-10-28T08:05:49.394Z,101070.47
2022-10-28T08:08:37.811Z,101076.09
2022-10-28T08:11:26.247Z,101080.59
2022-10-28T08:14:14.662Z,101076.91
2022-10-28T08:17:03.543Z,101083.09
2022-10-28T08:19:53.273Z,101074.44
2022-10-28T08:22:41.751Z,101066.41
2022-10-28T08:25:30.097Z,101070.81
2022-10-28T08:28:19.135Z,101062.13
2022-10-28T08:31:10.141Z,101062.41
2022-10-28T08:33:58.709Z,101056.88
2022-10-28T08:36:48.511Z,101063.88
2022-10-28T08:39:36.944Z,101071.28
2022-10-28T08:42:33.636Z,101074.19
2022-10-28T08:45:26.173Z,101076.25
2022-10-28T08:48:20.822Z,101075.84
2022-10-28T08:51:13.237Z,101074.19
2022-10-28T08:54:07.757Z,101071.75
2022-10-28T08:56:57.463Z,101068.59
2022-10-28T08:59:46.562Z,101069.63
2022-10-28T09:02:44.570Z,101064.72
2022-10-28T09:05:32.953Z,101059.22
2022-10-28T09:08:24.469Z,101062.47
2022-10-28T09:11:49.360Z,101060.56
2022-10-28T09:14:49.476Z,101057.75
2022-10-28T09:17:42.387Z,101060.25
2022-10-28T09:20:34.537Z,101061.16
2022-10-28T09:23:24.843Z,101055.88
2022-10-28T09:26:20.131Z,101053.41
2022-10-28T09:29:19.710Z,101055.06
2022-10-28T09:32:16.230Z,101047.69
2022-10-28T09:35:07.513Z,101056.47
2022-10-28T09:38:00.837Z,101054.03
2022-10-28T09:40:53.209Z,101051.97
2022-10-28T09:43:44.984Z,101052.50
2022-10-28T09:46:37.147Z,101049.94
2022-10-28T09:49:29.393Z,101042.50
2022-10-28T09:52:20.797Z,101046.41
2022-10-28T09:55:17.699Z,101037.72
2022-10-28T09:58:06.436Z,101035.41
2022-10-28T10:00:54.887Z,101030.00
2022-10-28T10:03:45.622Z,101021.94
2022-10-28T10:06:37.854Z,101016.97
2022-10-28T10:09:28.348Z,101017.59
2022-10-28T10:12:16.795Z,101011.44
2022-10-28T10:15:07.398Z,101011.44
2022-10-28T10:17:57.140Z,101006.88
2022-10-28T10:20:51.620Z,101011.47
2022-10-28T10:26:34.368Z,101004.53
2022-10-28T10:29:23.236Z,101001.41
2022-10-28T10:32:18.601Z,100993.81
2022-10-28T10:35:16.439Z,100985.56
2022-10-28T10:38:07.393Z,100982.88
2022-10-28T10:40:55.879Z,100981.22
2022-10-28T10:43:44.323Z,100977.53
2022-10-28T10:46:32.781Z,100980.78
2022-10-28T10:49:21.240Z,100972.75
2022-10-28T10:52:19.251Z,100956.91
2022-10-28T10:55:22.530Z,100953.84
2022-10-28T10:58:18.350Z,100961.09
2022-10-28T11:01:09.480Z,100954.31
2022-10-28T11:04:01.238Z,100951.44
2022-10-28T11:06:51.947Z,100949.38
2022-10-28T11:09:42.413Z,100947.53
2022-10-28T11:12:35.243Z,100936.38
2022-10-28T11:15:26.753Z,100938.25
2022-10-28T11:18:20.711Z,100928.34
2022-10-28T11:21:16.340Z,100923.22
2022-10-28T11:24:25.082Z,100916.97
2022-10-28T11:27:17.680Z,100915.94
2022-10-28T11:30:12.747Z,100908.94
2022-10-28T11:33:28.868Z,100901.94
2022-10-28T11:36:24.511Z,100906.47
2022-10-28T11:39:23.097Z,100898.63
2022-10-28T11:42:20.655Z,100894.53
2022-10-28T11:45:18.044Z,100899.09
2022-10-28T11:48:17.729Z,100897.06
2022-10-28T11:51:14.407Z,100897.47
2022-10-28T11:54:22.641Z,100892.09
2022-10-28T11:57:15.085Z,100897.06
2022-10-28T12:00:25.866Z,100896.88
2022-10-28T12:03:42.358Z,100885.91
2022-10-28T12:06:43.796Z,100893.75
2022-10-28T12:09:43.273Z,100893.75
2022-10-28T12:12:37.240Z,100889.25
2022-10-28T12:15:34.828Z,100879.19
2022-10-28T12:18:27.671Z,100873.66
2022-10-28T12:21:21.691Z,100872.88
2022-10-28T12:24:18.448Z,100864.03
2022-10-28T12:27:18.257Z,100858.66
2022-10-28T12:30:11.092Z,100863.88
2022-10-28T12:33:07.561Z,100858.88
2022-10-28T12:35:59.888Z,100856.19
2022-10-28T12:38:53.390Z,100861.34
2022-10-28T12:41:53.733Z,100851.50
2022-10-28T12:44:42.575Z,100855.22
2022-10-28T12:47:42.110Z,100857.69
2022-10-28T12:50:39.837Z,100852.75
2022-10-28T12:53:34.103Z,100857.09
2022-10-28T12:56:26.273Z,100850.63
2022-10-28T12:59:16.722Z,100847.53
2022-10-28T13:02:08.106Z,100843.19
2022-10-28T13:04:56.697Z,100842.38
2022-10-28T13:08:26.656Z,100842.38
2022-10-28T13:11:38.039Z,100846.72
2022-10-28T13:14:47.033Z,100850.00
2022-10-28T13:17:46.145Z,100850.25
2022-10-28T13:20:44.753Z,100848.56
2022-10-28T13:23:37.359Z,100842.84
2022-10-28T13:26:30.996Z,100837.06
2022-10-28T13:29:24.424Z,100833.75
2022-10-28T13:32:35.593Z,100833.16
2022-10-28T13:35:28.293Z,100834.94
2022-10-28T13:38:21.215Z,100833.28
2022-10-28T13:41:28.110Z,100831.16
2022-10-28T13:44:27.706Z,100835.34
2022-10-28T13:47:33.821Z,100835.88
2022-10-28T13:50:42.813Z,100844.34
2022-10-28T13:53:40.605Z,100840.19
2022-10-28T13:56:44.854Z,100842.66
2022-10-28T13:59:49.339Z,100842.63
2022-10-28T14:02:39.282Z,100838.94
2022-10-28T14:05:55.249Z,100842.00
2022-10-28T14:08:43.865Z,100845.50
2022-10-28T14:11:33.392Z,100844.63
2022-10-28T14:14:21.837Z,100844.13
2022-10-28T14:17:21.329Z,100840.44
2022-10-28T14:20:23.811Z,100840.06
2022-10-28T14:23:49.610Z,100844.13
2022-10-28T14:27:27.515Z,100844.75
2022-10-28T14:30:21.666Z,100837.13
2022-10-28T14:33:29.020Z,100849.28
2022-10-28T14:36:29.516Z,100844.94
2022-10-28T14:39:25.729Z,100846.94
2022-10-28T14:42:26.886Z,100851.69
2022-10-28T14:45:23.528Z,100845.22
2022-10-28T14:48:53.088Z,100837.38
2022-10-28T14:51:43.740Z,100848.16
2022-10-28T14:54:39.722Z,100841.97
2022-10-28T14:57:33.630Z,100838.72
2022-10-28T15:00:25.882Z,100848.81
2022-10-28T15:03:14.468Z,100843.03
2022-10-28T15:06:04.087Z,100848.75
2022-10-28T15:08:54.366Z,100841.81
2022-10-28T15:11:44.056Z,100841.41
2022-10-28T15:14:35.109Z,100843.44
2022-10-28T15:17:25.205Z,100847.78
2022-10-28T15:20:23.032Z,100840.78
2022-10-28T15:23:15.685Z,100844.75
2022-10-28T15:26:09.117Z,100843.09
2022-10-28T15:28:57.678Z,100839.75
2022-10-28T15:32:07.888Z,100838.53
2022-10-28T15:34:56.312Z,100841.03
2022-10-28T15:37:44.756Z,100839.00
2022-10-28T15:40:34.417Z,100832.78
2022-10-28T15:43:26.822Z,100839.88
2022-10-28T15:46:17.935Z,100841.66
2022-10-28T15:49:06.531Z,100840.25
2022-10-28T15:52:22.203Z,100831.59
2022-10-28T15:55:54.485Z,100820.88
2022-10-28T15:58:42.513Z,100825.66
2022-10-28T16:01:33.649Z,100820.88
2022-10-28T16:04:44.546Z,100821.72
2022-10-28T16:07:33.046Z,100825.22
2022-10-28T16:10:21.634Z,100815.53
2022-10-28T16:13:18.068Z,100818.63
2022-10-28T16:16:10.331Z,100823.34
2022-10-28T16:19:04.058Z,100823.56
2022-10-28T16:21:52.476Z,100831.38
2022-10-28T16:24:40.998Z,100825.00
2022-10-28T16:27:31.567Z,100823.69
2022-10-28T16:30:20.045Z,100824.09
2022-10-28T16:33:11.140Z,100831.09
2022-10-28T16:35:59.797Z,100829.44
2022-10-28T16:38:48.285Z,100832.00
2022-10-28T16:41:36.793Z,100834.41
2022-10-28T16:44:27.541Z,100839.75
2022-10-28T16:47:17.493Z,100839.13
2022-10-28T16:50:08.159Z,100836.44
2022-10-28T16:52:56.644Z,100832.38
2022-10-28T16:55:45.135Z,100834.03
2022-10-28T16:58:35.360Z,100834.41
2022-10-28T17:01:24.195Z,100837.91
2022-10-28T17:04:12.804Z,100840.59
2022-10-28T17:07:02.637Z,100838.72
2022-10-28T17:09:51.952Z,100845.59
2022-10-28T17:12:40.441Z,100833.25
2022-10-28T17:15:28.880Z,100829.09
2022-10-28T17:18:17.418Z,100830.56
2022-10-28T17:21:05.914Z,100824.19
2022-10-28T17:23:55.752Z,100835.38
2022-10-28T17:26:47.203Z,100843.53
2022-10-28T17:29:36.079Z,100850.25
2022-10-28T17:32:24.632Z,100852.31
2022-10-28T17:35:13.127Z,100849.81
2022-10-28T17:38:01.489Z,100849.88
2022-10-28T17:40:56.114Z,100849.97
2022-10-28T17:43:44.517Z,100844.97
2022-10-28T17:46:32.873Z,100846.94
2022-10-28T17:49:21.591Z,100849.03
2022-10-28T17:52:10.282Z,100845.41
2022-10-28T17:54:58.763Z,100846.66
2022-10-28T17:57:48.574Z,100845.22
2022-10-28T18:00:37.568Z,100846.97
2022-10-28T18:03:26.396Z,100843.47
2022-10-28T18:06:15.005Z,100847.81
2022-10-28T18:09:03.638Z,100846.56
2022-10-28T18:11:52.545Z,100838.22
2022-10-28T18:14:42.357Z,100834.47
2022-10-28T18:17:30.824Z,100834.13
2022-10-28T18:20:19.313Z,100835.84
2022-10-28T18:23:07.779Z,100833.00
2022-10-28T18:25:59.944Z,100830.59
2022-10-28T18:28:51.130Z,100828.53
2022-10-28T18:31:43.879Z,100832.25
2022-10-28T18:34:32.696Z,100825.03
2022-10-28T18:37:21.997Z,100832.25
2022-10-28T18:40:11.532Z,100827.72
2022-10-28T18:43:02.985Z,100826.09
2022-10-28T18:45:51.995Z,100826.88
2022-10-28T18:48:41.977Z,100837.00
2022-10-28T18:51:30.491Z,100824.81
2022-10-28T18:54:18.922Z,100833.09
2022-10-28T18:57:07.399Z,100827.31
2022-10-28T19:00:17.485Z,100832.06
2022-10-28T19:03:04.228Z,100822.75
2022-10-28T19:05:54.989Z,100819.66
2022-10-28T19:08:43.830Z,100817.78
2022-10-28T19:11:33.352Z,100815.69
2022-10-28T19:14:22.012Z,100813.47
2022-10-28T19:17:10.729Z,100815.13
2022-10-28T19:19:59.213Z,100816.53
2022-10-28T19:22:49.169Z,100815.69
2022-10-28T19:25:37.760Z,100819.38
2022-10-28T19:28:26.464Z,100814.41
2022-10-28T19:31:16.136Z,100821.41
2022-10-28T19:34:04.630Z,100821.78
2022-10-28T19:36:53.352Z,100819.31
2022-10-28T19:39:51.808Z,100818.28
2022-10-28T19:42:42.689Z,100815.16
2022-10-28T19:45:31.161Z,100826.72
2022-10-28T19:48:19.616Z,100827.50
2022-10-28T19:51:15.191Z,100829.97
2022-10-28T19:54:05.829Z,100831.34
2022-10-28T19:56:55.814Z,100829.91
2022-10-28T19:59:44.329Z,100837.13
2022-10-28T20:02:32.876Z,100843.72
2022-10-28T20:05:21.883Z,100838.56
2022-10-28T20:08:10.268Z,100846.38
2022-10-28T20:11:02.516Z,100839.00
2022-10-28T20:13:54.706Z,100849.06
2022-10-28T20:16:48.389Z,100851.13
2022-10-28T20:19:36.797Z,100857.50
2022-10-28T20:22:27.392Z,100857.22
2022-10-28T20:25:16.342Z,100849.22
2022-10-28T20:28:05.137Z,100846.53
2022-10-28T20:31:02.558Z,100853.50
2022-10-28T20:33:52.354Z,100854.69
2022-10-28T20:36:43.991Z,100863.13
2022-10-28T20:39:32.410Z,100853.50
2022-10-28T20:42:22.937Z,100852.25
2022-10-28T20:45:11.661Z,100860.91
2022-10-28T20:48:01.500Z,100854.28
2022-10-28T20:50:54.019Z,100860.81
2022-10-28T20:56:45.259Z,100864.03
2022-10-28T20:59:33.825Z,100866.09
2022-10-28T21:02:22.492Z,100866.94
2022-10-28T21:05:12.517Z,100874.13
2022-10-28T21:08:01.100Z,100871.47
2022-10-28T21:10:49.605Z,100882.13
2022-10-28T21:13:37.971Z,100878.03
2022-10-28T21:16:27.465Z,100880.03
2022-10-28T21:19:16.081Z,100876.75
2022-10-28T21:22:05.932Z,100877.31
2022-10-28T21:24:54.655Z,100870.53
2022-10-28T21:27:43.080Z,100872.38
2022-10-28T21:30:31.454Z,100880.22
2022-10-28T21:33:19.940Z,100887.81
2022-10-28T21:36:10.296Z,100885.31
2022-10-28T21:39:00.104Z,100893.97
2022-10-28T21:41:48.657Z,100886.97
2022-10-28T21:44:39.512Z,100893.56
2022-10-28T21:47:28.362Z,100889.47
2022-10-28T21:50:18.176Z,100884.50
2022-10-28T21:53:06.858Z,100891.69
2022-10-28T21:56:03.959Z,100895.38
2022-10-28T21:58:52.603Z,100885.72
2022-10-28T22:01:41.191Z,100878.72
2022-10-28T22:04:29.711Z,100884.69
2022-10-28T22:07:18.382Z,100890.22
2022-10-28T22:10:07.646Z,100889.41
2022-10-28T22:12:57.497Z,100906.50
2022-10-28T22:15:45.929Z,100893.50
2022-10-28T22:18:35.291Z,100901.53
2022-10-28T22:21:26.325Z,100884.47
2022-10-28T22:24:14.925Z,100891.47
2022-10-28T22:27:03.366Z,100894.31
2022-10-28T22:29:53.225Z,100904.22
2022-10-28T22:32:41.904Z,100908.09
2022-10-28T22:35:30.356Z,100909.75
2022-10-28T22:38:18.860Z,100899.22
2022-10-28T22:41:08.922Z,100913.63
2022-10-28T22:43:58.552Z,100925.38
2022-10-28T22:46:48.367Z,100898.22
2022-10-28T22:49:36.889Z,100895.16
2022-10-28T22:52:25.311Z,100907.53
2022-10-28T22:55:13.853Z,100912.25
2022-10-28T22:58:02.292Z,100909.94
2022-10-28T23:00:50.909Z,100914.94
2022-10-28T23:03:41.847Z,100920.28
2022-10-28T23:06:30.495Z,100899.28
2022-10-28T23:09:19.295Z,100903.03
2022-10-28T23:12:08.530Z,100908.16
2022-10-28T23:14:58.559Z,100918.22
2022-10-28T23:17:50.475Z,100910.44
2022-10-28T23:20:40.190Z,100907.13
2022-10-28T23:23:28.638Z,100918.84
2022-10-28T23:26:17.093Z,100925.69
2022-10-28T23:29:05.637Z,100931.41
2022-10-28T23:31:54.015Z,100924.22
2022-10-28T23:34:42.420Z,100919.47
2022-10-28T23:37:32.241Z,100918.22
2022-10-28T23:40:20.671Z,100922.34
2022-10-28T23:43:09.103Z,100923.19
2022-10-28T23:45:58.242Z,100931.59
2022-10-28T23:48:46.625Z,100931.84
2022-10-28T23:51:35.151Z,100928.53
2022-10-28T23:54:24.940Z,100934.91
2022-10-28T23:57:13.321Z,100932.22
